sensor_id;sensor_type;location;lat;lon;timestamp;P1;durP1;ratioP1;P2;durP2;ratioP2
20154;SDS011;10238;49.556;10.956;2024-03-17T00:01:46;2.13;;;1.65;;
20154;SDS011;10238;49.556;10.956;2024-03-17T00:04:32;2.47;;;2.20;;
20154;SDS011;10238;49.556;10.956;2024-03-17T00:07:18;4.07;;;2.67;;
20154;SDS011;10238;49.556;10.956;2024-03-17T00:10:05;4.05;;;2.20;;
20154;SDS011;10238;49.556;10.956;2024-03-17T00:12:51;2.95;;;2.22;;
20154;SDS011;10238;49.556;10.956;2024-03-17T00:15:39;3.08;;;2.47;;
20154;SDS011;10238;49.556;10.956;2024-03-17T00:18:25;5.03;;;2.15;;
20154;SDS011;10238;49.556;10.956;2024-03-17T00:21:13;3.08;;;2.25;;
20154;SDS011;10238;49.556;10.956;2024-03-17T00:23:58;3.00;;;2.22;;
20154;SDS011;10238;49.556;10.956;2024-03-17T00:26:47;4.47;;;2.20;;
20154;SDS011;10238;49.556;10.956;2024-03-17T00:29:33;3.45;;;2.33;;
20154;SDS011;10238;49.556;10.956;2024-03-17T00:32:21;2.20;;;2.00;;
20154;SDS011;10238;49.556;10.956;2024-03-17T00:35:09;4.05;;;2.13;;
20154;SDS011;10238;49.556;10.956;2024-03-17T00:37:58;3.17;;;2.80;;
20154;SDS011;10238;49.556;10.956;2024-03-17T00:40:45;4.03;;;2.58;;
20154;SDS011;10238;49.556;10.956;2024-03-17T00:43:33;2.75;;;2.40;;
20154;SDS011;10238;49.556;10.956;2024-03-17T00:46:20;3.53;;;3.08;;
20154;SDS011;10238;49.556;10.956;2024-03-17T00:49:08;4.20;;;2.78;;
20154;SDS011;10238;49.556;10.956;2024-03-17T00:51:56;4.18;;;2.72;;
20154;SDS011;10238;49.556;10.956;2024-03-17T00:54:41;4.30;;;2.55;;
20154;SDS011;10238;49.556;10.956;2024-03-17T00:57:28;4.90;;;3.47;;
20154;SDS011;10238;49.556;10.956;2024-03-17T01:00:14;5.82;;;3.30;;
20154;SDS011;10238;49.556;10.956;2024-03-17T01:03:02;3.38;;;2.97;;
20154;SDS011;10238;49.556;10.956;2024-03-17T01:05:50;3.55;;;3.22;;
20154;SDS011;10238;49.556;10.956;2024-03-17T01:08:37;4.28;;;3.60;;
20154;SDS011;10238;49.556;10.956;2024-03-17T01:11:23;3.47;;;3.00;;
20154;SDS011;10238;49.556;10.956;2024-03-17T01:14:09;3.33;;;3.00;;
20154;SDS011;10238;49.556;10.956;2024-03-17T01:16:55;2.90;;;2.65;;
20154;SDS011;10238;49.556;10.956;2024-03-17T01:19:42;3.47;;;3.03;;
20154;SDS011;10238;49.556;10.956;2024-03-17T01:22:30;2.85;;;2.60;;
20154;SDS011;10238;49.556;10.956;2024-03-17T01:25:16;2.92;;;2.63;;
20154;SDS011;10238;49.556;10.956;2024-03-17T01:28:02;3.40;;;3.00;;
20154;SDS011;10238;49.556;10.956;2024-03-17T01:30:49;4.15;;;3.10;;
20154;SDS011;10238;49.556;10.956;2024-03-17T01:33:35;5.00;;;2.88;;
20154;SDS011;10238;49.556;10.956;2024-03-17T01:36:21;3.58;;;2.97;;
20154;SDS011;10238;49.556;10.956;2024-03-17T01:39:08;4.18;;;3.08;;
20154;SDS011;10238;49.556;10.956;2024-03-17T01:41:55;4.20;;;2.70;;
20154;SDS011;10238;49.556;10.956;2024-03-17T01:44:44;3.55;;;2.88;;
20154;SDS011;10238;49.556;10.956;2024-03-17T01:47:30;2.80;;;2.60;;
20154;SDS011;10238;49.556;10.956;2024-03-17T01:50:17;4.05;;;3.10;;
20154;SDS011;10238;49.556;10.956;2024-03-17T01:53:09;2.97;;;2.60;;
20154;SDS011;10238;49.556;10.956;2024-03-17T01:56:00;3.10;;;2.70;;
20154;SDS011;10238;49.556;10.956;2024-03-17T01:58:48;3.38;;;2.78;;
20154;SDS011;10238;49.556;10.956;2024-03-17T02:01:36;3.55;;;2.50;;
20154;SDS011;10238;49.556;10.956;2024-03-17T02:04:22;2.58;;;2.25;;
20154;SDS011;10238;49.556;10.956;2024-03-17T02:07:08;4.63;;;2.35;;
20154;SDS011;10238;49.556;10.956;2024-03-17T02:09:56;3.53;;;2.78;;
20154;SDS011;10238;49.556;10.956;2024-03-17T02:12:44;5.30;;;2.92;;
20154;SDS011;10238;49.556;10.956;2024-03-17T02:15:30;3.28;;;2.78;;
20154;SDS011;10238;49.556;10.956;2024-03-17T02:18:17;4.82;;;2.75;;
20154;SDS011;10238;49.556;10.956;2024-03-17T02:21:03;3.60;;;3.05;;
20154;SDS011;10238;49.556;10.956;2024-03-17T02:23:52;5.90;;;3.17;;
20154;SDS011;10238;49.556;10.956;2024-03-17T02:26:37;4.20;;;2.97;;
20154;SDS011;10238;49.556;10.956;2024-03-17T02:29:25;5.63;;;3.20;;
20154;SDS011;10238;49.556;10.956;2024-03-17T02:32:11;3.70;;;3.17;;
20154;SDS011;10238;49.556;10.956;2024-03-17T02:34:57;3.70;;;3.40;;
20154;SDS011;10238;49.556;10.956;2024-03-17T02:37:43;4.93;;;3.03;;
20154;SDS011;10238;49.556;10.956;2024-03-17T02:40:31;3.65;;;3.35;;
20154;SDS011;10238;49.556;10.956;2024-03-17T02:43:17;3.80;;;3.50;;
20154;SDS011;10238;49.556;10.956;2024-03-17T02:46:03;5.38;;;4.15;;
20154;SDS011;10238;49.556;10.956;2024-03-17T02:48:51;4.25;;;3.50;;
20154;SDS011;10238;49.556;10.956;2024-03-17T02:51:38;4.07;;;3.50;;
20154;SDS011;10238;49.556;10.956;2024-03-17T02:54:25;3.75;;;3.45;;
20154;SDS011;10238;49.556;10.956;2024-03-17T02:57:14;4.00;;;3.60;;
20154;SDS011;10238;49.556;10.956;2024-03-17T03:00:00;6.20;;;3.33;;
20154;SDS011;10238;49.556;10.956;2024-03-17T03:02:48;3.78;;;3.08;;
20154;SDS011;10238;49.556;10.956;2024-03-17T03:05:35;4.72;;;3.17;;
20154;SDS011;10238;49.556;10.956;2024-03-17T03:08:22;3.13;;;2.88;;
20154;SDS011;10238;49.556;10.956;2024-03-17T03:11:10;3.38;;;2.83;;
20154;SDS011;10238;49.556;10.956;2024-03-17T03:13:59;2.85;;;2.50;;
20154;SDS011;10238;49.556;10.956;2024-03-17T03:16:47;5.45;;;2.90;;
20154;SDS011;10238;49.556;10.956;2024-03-17T03:19:34;3.35;;;2.88;;
20154;SDS011;10238;49.556;10.956;2024-03-17T03:22:21;3.08;;;2.65;;
20154;SDS011;10238;49.556;10.956;2024-03-17T03:25:07;3.38;;;2.72;;
20154;SDS011;10238;49.556;10.956;2024-03-17T03:27:54;3.97;;;2.60;;
20154;SDS011;10238;49.556;10.956;2024-03-17T03:30:43;5.20;;;2.78;;
20154;SDS011;10238;49.556;10.956;2024-03-17T03:33:30;3.65;;;2.67;;
20154;SDS011;10238;49.556;10.956;2024-03-17T03:36:17;4.85;;;2.70;;
20154;SDS011;10238;49.556;10.956;2024-03-17T03:39:04;4.40;;;2.88;;
20154;SDS011;10238;49.556;10.956;2024-03-17T03:41:50;3.20;;;2.42;;
20154;SDS011;10238;49.556;10.956;2024-03-17T03:44:37;5.97;;;2.70;;
20154;SDS011;10238;49.556;10.956;2024-03-17T03:47:25;4.53;;;3.00;;
20154;SDS011;10238;49.556;10.956;2024-03-17T03:50:14;4.40;;;2.55;;
20154;SDS011;10238;49.556;10.956;2024-03-17T03:53:03;4.85;;;3.75;;
20154;SDS011;10238;49.556;10.956;2024-03-17T03:55:51;2.95;;;2.65;;
20154;SDS011;10238;49.556;10.956;2024-03-17T03:58:38;6.53;;;3.72;;
20154;SDS011;10238;49.556;10.956;2024-03-17T04:01:27;5.38;;;3.65;;
20154;SDS011;10238;49.556;10.956;2024-03-17T04:04:15;6.40;;;3.83;;
20154;SDS011;10238;49.556;10.956;2024-03-17T04:07:02;4.82;;;3.42;;
20154;SDS011;10238;49.556;10.956;2024-03-17T04:09:49;4.50;;;3.55;;
20154;SDS011;10238;49.556;10.956;2024-03-17T04:12:36;8.05;;;4.47;;
20154;SDS011;10238;49.556;10.956;2024-03-17T04:15:22;6.63;;;4.47;;
20154;SDS011;10238;49.556;10.956;2024-03-17T04:18:09;6.40;;;3.78;;
20154;SDS011;10238;49.556;10.956;2024-03-17T04:20:58;5.40;;;3.90;;
20154;SDS011;10238;49.556;10.956;2024-03-17T04:23:49;4.85;;;3.50;;
20154;SDS011;10238;49.556;10.956;2024-03-17T04:26:36;5.63;;;4.18;;
20154;SDS011;10238;49.556;10.956;2024-03-17T04:29:23;6.50;;;4.28;;
20154;SDS011;10238;49.556;10.956;2024-03-17T04:32:09;6.47;;;3.38;;
20154;SDS011;10238;49.556;10.956;2024-03-17T04:34:56;5.68;;;4.20;;
20154;SDS011;10238;49.556;10.956;2024-03-17T04:37:44;5.68;;;4.10;;
20154;SDS011;10238;49.556;10.956;2024-03-17T04:40:31;6.20;;;3.67;;
20154;SDS011;10238;49.556;10.956;2024-03-17T04:43:18;3.70;;;3.03;;
20154;SDS011;10238;49.556;10.956;2024-03-17T04:46:05;5.40;;;3.80;;
20154;SDS011;10238;49.556;10.956;2024-03-17T04:48:53;4.72;;;3.75;;
20154;SDS011;10238;49.556;10.956;2024-03-17T04:51:40;6.85;;;3.17;;
20154;SDS011;10238;49.556;10.956;2024-03-17T04:54:28;5.45;;;3.20;;
20154;SDS011;10238;49.556;10.956;2024-03-17T04:57:17;6.07;;;3.75;;
20154;SDS011;10238;49.556;10.956;2024-03-17T05:00:03;4.15;;;3.60;;
20154;SDS011;10238;49.556;10.956;2024-03-17T05:02:52;4.20;;;2.70;;
20154;SDS011;10238;49.556;10.956;2024-03-17T05:05:38;5.07;;;3.15;;
20154;SDS011;10238;49.556;10.956;2024-03-17T05:08:25;5.10;;;2.97;;
20154;SDS011;10238;49.556;10.956;2024-03-17T05:11:13;3.65;;;3.05;;
20154;SDS011;10238;49.556;10.956;2024-03-17T05:14:00;5.05;;;2.83;;
20154;SDS011;10238;49.556;10.956;2024-03-17T05:16:48;4.50;;;2.70;;
20154;SDS011;10238;49.556;10.956;2024-03-17T05:19:35;5.55;;;3.30;;
20154;SDS011;10238;49.556;10.956;2024-03-17T05:22:22;4.55;;;2.95;;
20154;SDS011;10238;49.556;10.956;2024-03-17T05:25:09;3.55;;;2.78;;
20154;SDS011;10238;49.556;10.956;2024-03-17T05:27:59;3.40;;;2.60;;
20154;SDS011;10238;49.556;10.956;2024-03-17T05:30:46;5.35;;;2.78;;
20154;SDS011;10238;49.556;10.956;2024-03-17T05:33:36;4.32;;;2.67;;
20154;SDS011;10238;49.556;10.956;2024-03-17T05:36:23;5.53;;;2.95;;
20154;SDS011;10238;49.556;10.956;2024-03-17T05:39:10;3.72;;;2.92;;
20154;SDS011;10238;49.556;10.956;2024-03-17T05:41:57;4.43;;;2.63;;
20154;SDS011;10238;49.556;10.956;2024-03-17T05:44:45;3.92;;;2.60;;
20154;SDS011;10238;49.556;10.956;2024-03-17T05:47:35;4.25;;;2.83;;
20154;SDS011;10238;49.556;10.956;2024-03-17T05:50:22;3.90;;;2.70;;
20154;SDS011;10238;49.556;10.956;2024-03-17T05:53:09;3.60;;;3.05;;
20154;SDS011;10238;49.556;10.956;2024-03-17T05:55:56;4.30;;;2.90;;
20154;SDS011;10238;49.556;10.956;2024-03-17T05:58:44;4.38;;;2.90;;
20154;SDS011;10238;49.556;10.956;2024-03-17T06:01:33;3.40;;;2.33;;
20154;SDS011;10238;49.556;10.956;2024-03-17T06:04:21;5.05;;;3.22;;
20154;SDS011;10238;49.556;10.956;2024-03-17T06:07:08;5.28;;;3.22;;
20154;SDS011;10238;49.556;10.956;2024-03-17T06:09:55;3.40;;;2.33;;
20154;SDS011;10238;49.556;10.956;2024-03-17T06:12:41;3.88;;;2.70;;
20154;SDS011;10238;49.556;10.956;2024-03-17T06:15:28;3.75;;;2.45;;
20154;SDS011;10238;49.556;10.956;2024-03-17T06:18:17;2.72;;;2.45;;
20154;SDS011;10238;49.556;10.956;2024-03-17T06:21:05;8.75;;;3.90;;
20154;SDS011;10238;49.556;10.956;2024-03-17T06:23:54;4.40;;;2.97;;
20154;SDS011;10238;49.556;10.956;2024-03-17T06:26:41;5.05;;;3.15;;
20154;SDS011;10238;49.556;10.956;2024-03-17T06:29:28;5.85;;;3.40;;
20154;SDS011;10238;49.556;10.956;2024-03-17T06:32:14;7.90;;;3.90;;
20154;SDS011;10238;49.556;10.956;2024-03-17T06:35:03;6.95;;;3.28;;
20154;SDS011;10238;49.556;10.956;2024-03-17T06:37:51;5.88;;;3.45;;
20154;SDS011;10238;49.556;10.956;2024-03-17T06:40:38;4.72;;;3.28;;
20154;SDS011;10238;49.556;10.956;2024-03-17T06:43:27;4.53;;;3.17;;
20154;SDS011;10238;49.556;10.956;2024-03-17T06:46:13;5.88;;;3.33;;
20154;SDS011;10238;49.556;10.956;2024-03-17T06:49:00;5.22;;;3.50;;
20154;SDS011;10238;49.556;10.956;2024-03-17T06:51:48;5.03;;;3.80;;
20154;SDS011;10238;49.556;10.956;2024-03-17T06:54:35;4.15;;;3.42;;
20154;SDS011;10238;49.556;10.956;2024-03-17T06:57:24;4.25;;;3.15;;
20154;SDS011;10238;49.556;10.956;2024-03-17T07:00:12;6.07;;;3.22;;
20154;SDS011;10238;49.556;10.956;2024-03-17T07:03:03;4.90;;;3.78;;
20154;SDS011;10238;49.556;10.956;2024-03-17T07:05:54;5.30;;;3.80;;
20154;SDS011;10238;49.556;10.956;2024-03-17T07:08:43;6.72;;;4.05;;
20154;SDS011;10238;49.556;10.956;2024-03-17T07:11:30;7.75;;;4.65;;
20154;SDS011;10238;49.556;10.956;2024-03-17T07:14:20;6.70;;;4.40;;
20154;SDS011;10238;49.556;10.956;2024-03-17T07:17:07;4.50;;;3.80;;
20154;SDS011;10238;49.556;10.956;2024-03-17T07:19:55;7.53;;;4.88;;
20154;SDS011;10238;49.556;10.956;2024-03-17T07:22:41;7.25;;;4.35;;
20154;SDS011;10238;49.556;10.956;2024-03-17T07:25:29;7.60;;;4.15;;
20154;SDS011;10238;49.556;10.956;2024-03-17T07:28:16;5.40;;;3.78;;
20154;SDS011;10238;49.556;10.956;2024-03-17T07:31:05;6.68;;;4.45;;
20154;SDS011;10238;49.556;10.956;2024-03-17T07:33:55;6.70;;;4.60;;
20154;SDS011;10238;49.556;10.956;2024-03-17T07:36:42;6.85;;;4.63;;
20154;SDS011;10238;49.556;10.956;2024-03-17T07:39:29;5.57;;;4.00;;
20154;SDS011;10238;49.556;10.956;2024-03-17T07:42:19;6.05;;;4.53;;
20154;SDS011;10238;49.556;10.956;2024-03-17T07:45:06;6.40;;;4.18;;
20154;SDS011;10238;49.556;10.956;2024-03-17T07:47:53;6.28;;;4.47;;
20154;SDS011;10238;49.556;10.956;2024-03-17T07:50:40;6.25;;;4.15;;
20154;SDS011;10238;49.556;10.956;2024-03-17T07:53:27;7.93;;;4.28;;
20154;SDS011;10238;49.556;10.956;2024-03-17T07:56:14;6.05;;;4.97;;
20154;SDS011;10238;49.556;10.956;2024-03-17T07:59:03;6.35;;;4.90;;
20154;SDS011;10238;49.556;10.956;2024-03-17T08:01:57;6.78;;;4.78;;
20154;SDS011;10238;49.556;10.956;2024-03-17T08:04:44;7.35;;;5.47;;
20154;SDS011;10238;49.556;10.956;2024-03-17T08:07:36;6.80;;;4.68;;
20154;SDS011;10238;49.556;10.956;2024-03-17T08:10:23;10.13;;;5.57;;
20154;SDS011;10238;49.556;10.956;2024-03-17T08:13:10;11.80;;;6.55;;
20154;SDS011;10238;49.556;10.956;2024-03-17T08:16:02;9.10;;;5.57;;
20154;SDS011;10238;49.556;10.956;2024-03-17T08:18:51;8.82;;;6.65;;
20154;SDS011;10238;49.556;10.956;2024-03-17T08:21:37;7.75;;;5.65;;
20154;SDS011;10238;49.556;10.956;2024-03-17T08:24:24;10.57;;;5.95;;
20154;SDS011;10238;49.556;10.956;2024-03-17T08:27:11;8.05;;;5.93;;
20154;SDS011;10238;49.556;10.956;2024-03-17T08:29:57;8.30;;;5.90;;
20154;SDS011;10238;49.556;10.956;2024-03-17T08:32:45;9.35;;;6.10;;
20154;SDS011;10238;49.556;10.956;2024-03-17T08:35:32;9.35;;;5.97;;
20154;SDS011;10238;49.556;10.956;2024-03-17T08:38:20;8.35;;;5.80;;
20154;SDS011;10238;49.556;10.956;2024-03-17T08:41:08;9.85;;;6.22;;
20154;SDS011;10238;49.556;10.956;2024-03-17T08:43:56;8.73;;;6.32;;
20154;SDS011;10238;49.556;10.956;2024-03-17T08:46:43;7.45;;;5.82;;
20154;SDS011;10238;49.556;10.956;2024-03-17T08:49:31;9.38;;;6.32;;
20154;SDS011;10238;49.556;10.956;2024-03-17T08:52:18;9.90;;;6.45;;
20154;SDS011;10238;49.556;10.956;2024-03-17T08:55:05;8.20;;;5.80;;
20154;SDS011;10238;49.556;10.956;2024-03-17T08:57:58;7.35;;;5.53;;
20154;SDS011;10238;49.556;10.956;2024-03-17T09:00:45;9.38;;;6.40;;
20154;SDS011;10238;49.556;10.956;2024-03-17T09:03:32;8.45;;;6.18;;
20154;SDS011;10238;49.556;10.956;2024-03-17T09:06:20;8.90;;;5.43;;
20154;SDS011;10238;49.556;10.956;2024-03-17T09:09:07;8.20;;;5.80;;
20154;SDS011;10238;49.556;10.956;2024-03-17T09:11:54;8.70;;;6.10;;
20154;SDS011;10238;49.556;10.956;2024-03-17T09:14:40;8.07;;;6.00;;
20154;SDS011;10238;49.556;10.956;2024-03-17T09:17:28;7.72;;;5.00;;
20154;SDS011;10238;49.556;10.956;2024-03-17T09:20:14;9.07;;;5.95;;
20154;SDS011;10238;49.556;10.956;2024-03-17T09:23:03;8.95;;;6.00;;
20154;SDS011;10238;49.556;10.956;2024-03-17T09:25:54;9.20;;;6.20;;
20154;SDS011;10238;49.556;10.956;2024-03-17T09:28:43;7.65;;;5.20;;
20154;SDS011;10238;49.556;10.956;2024-03-17T09:31:29;8.73;;;5.95;;
20154;SDS011;10238;49.556;10.956;2024-03-17T09:34:18;8.55;;;5.43;;
20154;SDS011;10238;49.556;10.956;2024-03-17T09:37:05;8.95;;;5.93;;
20154;SDS011;10238;49.556;10.956;2024-03-17T09:39:53;7.70;;;5.20;;
20154;SDS011;10238;49.556;10.956;2024-03-17T09:42:41;5.50;;;4.40;;
20154;SDS011;10238;49.556;10.956;2024-03-17T09:45:28;6.25;;;4.65;;
20154;SDS011;10238;49.556;10.956;2024-03-17T09:48:18;9.00;;;5.70;;
20154;SDS011;10238;49.556;10.956;2024-03-17T09:51:06;6.35;;;4.82;;
20154;SDS011;10238;49.556;10.956;2024-03-17T09:53:52;8.88;;;5.80;;
20154;SDS011;10238;49.556;10.956;2024-03-17T09:56:41;6.47;;;5.20;;
20154;SDS011;10238;49.556;10.956;2024-03-17T09:59:28;11.10;;;5.40;;
20154;SDS011;10238;49.556;10.956;2024-03-17T10:02:15;6.22;;;4.45;;
20154;SDS011;10238;49.556;10.956;2024-03-17T10:05:08;5.38;;;3.83;;
20154;SDS011;10238;49.556;10.956;2024-03-17T10:08:06;6.90;;;3.92;;
20154;SDS011;10238;49.556;10.956;2024-03-17T10:11:07;5.88;;;4.35;;
20154;SDS011;10238;49.556;10.956;2024-03-17T10:14:02;7.05;;;4.55;;
20154;SDS011;10238;49.556;10.956;2024-03-17T10:16:51;7.07;;;5.05;;
20154;SDS011;10238;49.556;10.956;2024-03-17T10:19:38;7.93;;;4.75;;
20154;SDS011;10238;49.556;10.956;2024-03-17T10:22:24;7.93;;;4.32;;
20154;SDS011;10238;49.556;10.956;2024-03-17T10:25:11;6.35;;;5.05;;
20154;SDS011;10238;49.556;10.956;2024-03-17T10:27:58;7.00;;;4.88;;
20154;SDS011;10238;49.556;10.956;2024-03-17T10:30:57;7.18;;;4.90;;
20154;SDS011;10238;49.556;10.956;2024-03-17T10:33:46;4.63;;;3.67;;
20154;SDS011;10238;49.556;10.956;2024-03-17T10:36:47;8.05;;;5.05;;
20154;SDS011;10238;49.556;10.956;2024-03-17T10:39:34;8.70;;;5.78;;
20154;SDS011;10238;49.556;10.956;2024-03-17T10:42:23;6.82;;;4.55;;
20154;SDS011;10238;49.556;10.956;2024-03-17T10:45:13;6.85;;;4.70;;
20154;SDS011;10238;49.556;10.956;2024-03-17T10:48:01;5.97;;;5.00;;
20154;SDS011;10238;49.556;10.956;2024-03-17T10:50:52;8.00;;;6.00;;
20154;SDS011;10238;49.556;10.956;2024-03-17T10:53:45;4.93;;;4.43;;
20154;SDS011;10238;49.556;10.956;2024-03-17T10:56:37;8.00;;;4.88;;
20154;SDS011;10238;49.556;10.956;2024-03-17T10:59:28;6.97;;;4.38;;
20154;SDS011;10238;49.556;10.956;2024-03-17T11:02:32;7.60;;;5.15;;
20154;SDS011;10238;49.556;10.956;2024-03-17T11:05:22;5.80;;;4.75;;
20154;SDS011;10238;49.556;10.956;2024-03-17T11:08:15;5.97;;;4.45;;
20154;SDS011;10238;49.556;10.956;2024-03-17T11:11:04;5.68;;;4.57;;
20154;SDS011;10238;49.556;10.956;2024-03-17T11:13:50;5.65;;;5.03;;
20154;SDS011;10238;49.556;10.956;2024-03-17T11:16:57;5.50;;;4.22;;
20154;SDS011;10238;49.556;10.956;2024-03-17T11:19:44;6.13;;;4.53;;
20154;SDS011;10238;49.556;10.956;2024-03-17T11:23:00;3.85;;;3.45;;
20154;SDS011;10238;49.556;10.956;2024-03-17T11:25:49;4.93;;;4.22;;
20154;SDS011;10238;49.556;10.956;2024-03-17T11:28:48;4.57;;;3.25;;
20154;SDS011;10238;49.556;10.956;2024-03-17T11:31:38;4.93;;;4.43;;
20154;SDS011;10238;49.556;10.956;2024-03-17T11:34:32;5.47;;;4.18;;
20154;SDS011;10238;49.556;10.956;2024-03-17T11:37:40;5.85;;;4.30;;
20154;SDS011;10238;49.556;10.956;2024-03-17T11:40:30;6.38;;;4.28;;
20154;SDS011;10238;49.556;10.956;2024-03-17T11:43:16;3.97;;;3.58;;
20154;SDS011;10238;49.556;10.956;2024-03-17T11:46:03;5.85;;;4.07;;
20154;SDS011;10238;49.556;10.956;2024-03-17T11:48:49;5.57;;;4.57;;
20154;SDS011;10238;49.556;10.956;2024-03-17T11:51:37;5.40;;;4.18;;
20154;SDS011;10238;49.556;10.956;2024-03-17T11:54:27;4.68;;;4.05;;
20154;SDS011;10238;49.556;10.956;2024-03-17T11:57:19;6.25;;;4.30;;
20154;SDS011;10238;49.556;10.956;2024-03-17T12:00:15;9.00;;;5.57;;
20154;SDS011;10238;49.556;10.956;2024-03-17T12:03:09;6.22;;;4.60;;
20154;SDS011;10238;49.556;10.956;2024-03-17T12:05:56;5.38;;;4.63;;
20154;SDS011;10238;49.556;10.956;2024-03-17T12:08:42;7.75;;;5.35;;
20154;SDS011;10238;49.556;10.956;2024-03-17T12:11:29;5.13;;;3.78;;
20154;SDS011;10238;49.556;10.956;2024-03-17T12:14:17;7.97;;;4.63;;
20154;SDS011;10238;49.556;10.956;2024-03-17T12:17:06;5.82;;;4.15;;
20154;SDS011;10238;49.556;10.956;2024-03-17T12:19:54;7.50;;;4.60;;
20154;SDS011;10238;49.556;10.956;2024-03-17T12:22:42;6.22;;;5.13;;
20154;SDS011;10238;49.556;10.956;2024-03-17T12:25:27;8.70;;;5.25;;
20154;SDS011;10238;49.556;10.956;2024-03-17T12:28:15;7.10;;;4.50;;
20154;SDS011;10238;49.556;10.956;2024-03-17T12:31:03;5.00;;;4.22;;
20154;SDS011;10238;49.556;10.956;2024-03-17T12:33:50;7.32;;;5.15;;
20154;SDS011;10238;49.556;10.956;2024-03-17T12:36:37;7.88;;;5.38;;
20154;SDS011;10238;49.556;10.956;2024-03-17T12:39:25;6.07;;;4.90;;
20154;SDS011;10238;49.556;10.956;2024-03-17T12:42:14;5.18;;;4.32;;
20154;SDS011;10238;49.556;10.956;2024-03-17T12:45:02;4.88;;;3.78;;
20154;SDS011;10238;49.556;10.956;2024-03-17T12:47:52;8.20;;;6.05;;
20154;SDS011;10238;49.556;10.956;2024-03-17T12:50:44;7.68;;;5.47;;
20154;SDS011;10238;49.556;10.956;2024-03-17T12:53:32;6.70;;;5.00;;
20154;SDS011;10238;49.556;10.956;2024-03-17T12:56:22;8.30;;;5.55;;
20154;SDS011;10238;49.556;10.956;2024-03-17T12:59:36;8.98;;;5.38;;
20154;SDS011;10238;49.556;10.956;2024-03-17T13:02:41;5.88;;;4.35;;
20154;SDS011;10238;49.556;10.956;2024-03-17T13:05:30;7.05;;;5.07;;
20154;SDS011;10238;49.556;10.956;2024-03-17T13:08:17;7.47;;;5.47;;
20154;SDS011;10238;49.556;10.956;2024-03-17T13:11:04;5.57;;;4.45;;
20154;SDS011;10238;49.556;10.956;2024-03-17T13:13:55;5.88;;;4.35;;
20154;SDS011;10238;49.556;10.956;2024-03-17T13:16:42;6.80;;;6.10;;
20154;SDS011;10238;49.556;10.956;2024-03-17T13:19:29;5.00;;;4.45;;
20154;SDS011;10238;49.556;10.956;2024-03-17T13:22:16;6.05;;;4.53;;
20154;SDS011;10238;49.556;10.956;2024-03-17T13:25:03;9.85;;;5.38;;
20154;SDS011;10238;49.556;10.956;2024-03-17T13:27:50;8.13;;;5.80;;
20154;SDS011;10238;49.556;10.956;2024-03-17T13:30:39;5.57;;;4.57;;
20154;SDS011;10238;49.556;10.956;2024-03-17T13:33:28;4.53;;;3.83;;
20154;SDS011;10238;49.556;10.956;2024-03-17T13:36:14;5.65;;;4.15;;
20154;SDS011;10238;49.556;10.956;2024-03-17T13:39:03;4.47;;;3.78;;
20154;SDS011;10238;49.556;10.956;2024-03-17T13:41:54;7.18;;;4.75;;
20154;SDS011;10238;49.556;10.956;2024-03-17T13:44:46;6.70;;;4.70;;
20154;SDS011;10238;49.556;10.956;2024-03-17T13:47:33;7.35;;;4.70;;
20154;SDS011;10238;49.556;10.956;2024-03-17T13:50:19;6.47;;;4.38;;
20154;SDS011;10238;49.556;10.956;2024-03-17T13:53:06;4.90;;;3.63;;
20154;SDS011;10238;49.556;10.956;2024-03-17T13:55:55;5.57;;;4.43;;
20154;SDS011;10238;49.556;10.956;2024-03-17T13:58:42;5.38;;;4.22;;
20154;SDS011;10238;49.556;10.956;2024-03-17T14:01:29;5.15;;;3.75;;
20154;SDS011;10238;49.556;10.956;2024-03-17T14:04:16;5.55;;;4.43;;
20154;SDS011;10238;49.556;10.956;2024-03-17T14:07:03;4.93;;;3.92;;
20154;SDS011;10238;49.556;10.956;2024-03-17T14:09:50;6.40;;;3.75;;
20154;SDS011;10238;49.556;10.956;2024-03-17T14:12:38;5.47;;;3.92;;
20154;SDS011;10238;49.556;10.956;2024-03-17T14:15:26;8.02;;;4.47;;
20154;SDS011;10238;49.556;10.956;2024-03-17T14:18:12;5.78;;;4.57;;
20154;SDS011;10238;49.556;10.956;2024-03-17T14:20:59;5.50;;;4.15;;
20154;SDS011;10238;49.556;10.956;2024-03-17T14:23:45;4.75;;;4.22;;
20154;SDS011;10238;49.556;10.956;2024-03-17T14:26:33;5.68;;;4.63;;
20154;SDS011;10238;49.556;10.956;2024-03-17T14:29:22;4.40;;;3.83;;
20154;SDS011;10238;49.556;10.956;2024-03-17T14:32:08;5.68;;;4.25;;
20154;SDS011;10238;49.556;10.956;2024-03-17T14:34:56;5.90;;;4.13;;
20154;SDS011;10238;49.556;10.956;2024-03-17T14:37:44;5.97;;;4.63;;
20154;SDS011;10238;49.556;10.956;2024-03-17T14:40:33;5.85;;;4.18;;
20154;SDS011;10238;49.556;10.956;2024-03-17T14:43:20;6.03;;;3.92;;
20154;SDS011;10238;49.556;10.956;2024-03-17T14:46:08;6.35;;;4.22;;
20154;SDS011;10238;49.556;10.956;2024-03-17T14:48:58;5.47;;;3.60;;
20154;SDS011;10238;49.556;10.956;2024-03-17T14:51:46;4.80;;;3.75;;
20154;SDS011;10238;49.556;10.956;2024-03-17T14:54:33;5.57;;;3.97;;
20154;SDS011;10238;49.556;10.956;2024-03-17T14:57:19;5.75;;;4.30;;
20154;SDS011;10238;49.556;10.956;2024-03-17T15:00:11;6.25;;;4.18;;
20154;SDS011;10238;49.556;10.956;2024-03-17T15:03:04;4.65;;;3.78;;
20154;SDS011;10238;49.556;10.956;2024-03-17T15:05:52;5.35;;;4.15;;
20154;SDS011;10238;49.556;10.956;2024-03-17T15:08:39;6.28;;;4.13;;
20154;SDS011;10238;49.556;10.956;2024-03-17T15:11:25;5.43;;;4.50;;
20154;SDS011;10238;49.556;10.956;2024-03-17T15:14:12;5.55;;;3.85;;
20154;SDS011;10238;49.556;10.956;2024-03-17T15:16:58;6.82;;;4.13;;
20154;SDS011;10238;49.556;10.956;2024-03-17T15:19:48;4.70;;;3.92;;
20154;SDS011;10238;49.556;10.956;2024-03-17T15:22:35;5.22;;;3.83;;
20154;SDS011;10238;49.556;10.956;2024-03-17T15:25:23;5.07;;;4.15;;
20154;SDS011;10238;49.556;10.956;2024-03-17T15:28:09;6.28;;;4.57;;
20154;SDS011;10238;49.556;10.956;2024-03-17T15:30:57;7.68;;;4.80;;
20154;SDS011;10238;49.556;10.956;2024-03-17T15:33:45;5.07;;;4.03;;
20154;SDS011;10238;49.556;10.956;2024-03-17T15:36:34;5.50;;;4.28;;
20154;SDS011;10238;49.556;10.956;2024-03-17T15:39:21;7.32;;;4.50;;
20154;SDS011;10238;49.556;10.956;2024-03-17T15:42:08;5.82;;;4.35;;
20154;SDS011;10238;49.556;10.956;2024-03-17T15:44:57;5.90;;;3.95;;
20154;SDS011;10238;49.556;10.956;2024-03-17T15:47:44;4.68;;;3.70;;
20154;SDS011;10238;49.556;10.956;2024-03-17T15:50:30;4.95;;;3.70;;
20154;SDS011;10238;49.556;10.956;2024-03-17T15:53:19;7.03;;;4.70;;
20154;SDS011;10238;49.556;10.956;2024-03-17T15:56:06;6.10;;;3.88;;
20154;SDS011;10238;49.556;10.956;2024-03-17T15:58:52;5.72;;;3.70;;
20154;SDS011;10238;49.556;10.956;2024-03-17T16:01:39;5.90;;;4.47;;
20154;SDS011;10238;49.556;10.956;2024-03-17T16:04:26;6.13;;;3.58;;
20154;SDS011;10238;49.556;10.956;2024-03-17T16:07:13;6.90;;;4.53;;
20154;SDS011;10238;49.556;10.956;2024-03-17T16:10:00;4.93;;;3.95;;
20154;SDS011;10238;49.556;10.956;2024-03-17T16:12:47;6.80;;;4.20;;
20154;SDS011;10238;49.556;10.956;2024-03-17T16:15:34;6.55;;;4.32;;
20154;SDS011;10238;49.556;10.956;2024-03-17T16:18:21;5.38;;;4.18;;
20154;SDS011;10238;49.556;10.956;2024-03-17T16:21:09;5.57;;;4.03;;
20154;SDS011;10238;49.556;10.956;2024-03-17T16:23:59;5.40;;;3.58;;
20154;SDS011;10238;49.556;10.956;2024-03-17T16:26:53;5.75;;;3.70;;
20154;SDS011;10238;49.556;10.956;2024-03-17T16:29:40;5.20;;;4.47;;
20154;SDS011;10238;49.556;10.956;2024-03-17T16:32:28;6.25;;;4.80;;
20154;SDS011;10238;49.556;10.956;2024-03-17T16:35:16;4.32;;;3.92;;
20154;SDS011;10238;49.556;10.956;2024-03-17T16:38:03;6.22;;;4.00;;